createdAt,value
2019-06-01T00:00:10.090Z,3.17
2019-06-01T00:05:04.350Z,3.15
2019-06-01T00:07:38.646Z,4.10
2019-06-01T00:12:49.549Z,4.12
2019-06-01T00:15:19.567Z,3.83
2019-06-01T00:17:49.974Z,3.40
2019-06-01T00:20:19.192Z,4.12
2019-06-01T00:22:51.788Z,3.55
2019-06-01T00:25:23.958Z,3.70
2019-06-01T00:27:59.967Z,4.37
2019-06-01T00:30:31.621Z,4.28
2019-06-01T00:33:08.318Z,4.10
2019-06-01T00:35:38.667Z,4.35
2019-06-01T00:38:10.416Z,4.22
2019-06-01T00:40:44.500Z,3.60
2019-06-01T00:46:11.573Z,4.58
2019-06-01T00:48:40.271Z,7.40
2019-06-01T00:51:09.623Z,4.87
2019-06-01T00:53:43.283Z,4.87
2019-06-01T00:58:49.883Z,4.97
2019-06-01T01:01:20.135Z,4.58
2019-06-01T01:03:50.121Z,5.95
2019-06-01T01:06:19.022Z,5.40
2019-06-01T01:08:49.211Z,5.83
2019-06-01T01:11:20.070Z,5.80
2019-06-01T01:13:49.604Z,4.87
2019-06-01T01:16:18.336Z,4.50
2019-06-01T01:18:51.839Z,5.20
2019-06-01T01:21:20.459Z,6.72
2019-06-01T01:23:53.182Z,5.47
2019-06-01T01:26:24.193Z,6.12
2019-06-01T01:28:53.019Z,5.47
2019-06-01T01:31:25.167Z,6.15
2019-06-01T01:33:53.938Z,5.42
2019-06-01T01:36:24.662Z,5.85
2019-06-01T01:38:54.381Z,5.30
2019-06-01T01:41:27.806Z,6.92
2019-06-01T01:43:56.628Z,6.95
2019-06-01T01:46:28.362Z,5.97
2019-06-01T01:49:03.451Z,6.65
2019-06-01T01:51:32.246Z,6.80
2019-06-01T01:54:04.549Z,5.55
2019-06-01T01:56:38.168Z,6.50
2019-06-01T01:59:08.926Z,6.55
2019-06-01T02:01:40.906Z,5.78
2019-06-01T02:04:14.177Z,5.83
2019-06-01T02:06:53.919Z,5.72
2019-06-01T02:09:23.152Z,5.80
2019-06-01T02:11:53.436Z,7.85
2019-06-01T02:14:24.694Z,6.58
2019-06-01T02:16:56.183Z,9.00
2019-06-01T02:19:29.726Z,6.37
2019-06-01T02:22:09.028Z,6.25
2019-06-01T02:24:39.557Z,6.10
2019-06-01T02:27:09.226Z,7.37
2019-06-01T02:29:43.180Z,6.05
2019-06-01T02:33:53.750Z,7.10
2019-06-01T02:37:51.524Z,6.50
2019-06-01T02:40:25.843Z,6.90
2019-06-01T02:42:57.191Z,6.75
2019-06-01T02:45:29.401Z,7.35
2019-06-01T02:50:46.280Z,6.92
2019-06-01T02:53:15.478Z,6.92
2019-06-01T02:55:46.831Z,7.45
2019-06-01T02:58:20.490Z,7.58
2019-06-01T03:00:59.005Z,6.85
2019-06-01T03:03:53.748Z,6.37
2019-06-01T03:06:27.974Z,6.47
2019-06-01T03:09:03.772Z,6.15
2019-06-01T03:11:37.875Z,6.47
2019-06-01T03:14:45.423Z,6.58
2019-06-01T03:17:17.123Z,9.05
2019-06-01T03:22:57.556Z,6.92
2019-06-01T03:25:31.516Z,7.47
2019-06-01T03:28:04.049Z,7.90
2019-06-01T03:30:48.249Z,6.67
2019-06-01T03:33:19.792Z,8.08
2019-06-01T03:35:48.746Z,7.97
2019-06-01T03:38:20.241Z,7.22
2019-06-01T03:40:51.926Z,8.08
2019-06-01T03:43:22.040Z,8.83
2019-06-01T03:46:00.501Z,7.20
2019-06-01T03:48:29.399Z,7.28
2019-06-01T03:51:01.646Z,7.28
2019-06-01T03:53:30.392Z,7.80
2019-06-01T03:56:01.536Z,9.30
2019-06-01T03:58:30.612Z,7.25
2019-06-01T04:00:59.264Z,9.08
2019-06-01T04:03:28.003Z,7.75
2019-06-01T04:06:01.229Z,7.70
2019-06-01T04:08:29.782Z,8.15
2019-06-01T04:10:58.542Z,7.20
2019-06-01T04:13:27.702Z,7.95
2019-06-01T04:15:58.964Z,7.17
2019-06-01T04:18:30.148Z,8.60
2019-06-01T04:20:59.129Z,8.90
2019-06-01T04:23:32.963Z,10.98
2019-06-01T04:28:31.325Z,7.45
2019-06-01T04:31:02.337Z,7.95
2019-06-01T04:33:31.146Z,6.87
2019-06-01T04:36:06.890Z,8.18
2019-06-01T04:38:37.041Z,7.53
2019-06-01T04:41:07.643Z,7.50
2019-06-01T04:43:39.991Z,6.40
2019-06-01T04:46:12.349Z,7.25
2019-06-01T04:48:41.199Z,6.28
2019-06-01T04:51:12.136Z,9.10
2019-06-01T04:53:41.816Z,6.47
2019-06-01T04:56:11.143Z,7.05
2019-06-01T04:58:40.592Z,6.85
2019-06-01T05:01:11.667Z,5.58
2019-06-01T05:03:41.894Z,5.28
2019-06-01T05:06:11.330Z,6.10
2019-06-01T05:08:42.027Z,5.28
2019-06-01T05:11:15.740Z,5.78
2019-06-01T05:16:16.552Z,5.72
2019-06-01T05:18:46.434Z,4.72
2019-06-01T05:21:16.751Z,5.35
2019-06-01T05:23:45.705Z,6.55
2019-06-01T05:26:17.202Z,5.42
2019-06-01T05:28:45.581Z,5.65
2019-06-01T05:31:23.452Z,5.12
2019-06-01T05:33:50.387Z,4.40
2019-06-01T05:36:19.274Z,5.08
2019-06-01T05:38:48.129Z,4.17
2019-06-01T05:41:20.900Z,5.25
2019-06-01T05:43:51.986Z,4.58
2019-06-01T05:46:22.592Z,5.35
2019-06-01T05:48:52.920Z,4.85
2019-06-01T05:51:23.064Z,6.08
2019-06-01T05:53:53.206Z,4.78
2019-06-01T05:56:24.016Z,4.80
2019-06-01T05:58:55.615Z,4.58
2019-06-01T06:01:25.839Z,5.35
2019-06-01T06:03:55.787Z,5.67
2019-06-01T06:06:24.445Z,4.28
2019-06-01T06:08:53.365Z,6.30
2019-06-01T06:11:25.297Z,5.15
2019-06-01T06:13:55.554Z,6.75
2019-06-01T06:16:25.856Z,4.75
2019-06-01T06:19:02.559Z,4.40
2019-06-01T06:21:34.806Z,3.98
2019-06-01T06:24:03.653Z,5.50
2019-06-01T06:26:37.574Z,5.03
2019-06-01T06:29:06.651Z,4.87
2019-06-01T06:31:35.460Z,4.75
2019-06-01T06:34:04.389Z,4.25
2019-06-01T06:36:37.027Z,3.87
2019-06-01T06:39:10.781Z,3.70
2019-06-01T06:44:10.095Z,3.80
2019-06-01T06:46:40.345Z,3.17
2019-06-01T06:49:10.063Z,2.80
2019-06-01T06:51:43.021Z,3.77
2019-06-01T06:54:17.630Z,3.87
2019-06-01T06:56:56.811Z,3.45
2019-06-01T06:59:26.989Z,3.50
2019-06-01T07:02:00.506Z,4.45
2019-06-01T07:04:29.559Z,4.10
2019-06-01T07:07:01.487Z,3.83
2019-06-01T07:09:33.673Z,3.72
2019-06-01T07:12:02.109Z,3.15
2019-06-01T07:14:33.216Z,3.52
2019-06-01T07:17:01.991Z,3.52
2019-06-01T07:19:39.478Z,3.92
2019-06-01T07:22:09.960Z,3.20
2019-06-01T07:24:38.942Z,3.47
2019-06-01T07:27:11.875Z,4.10
2019-06-01T07:29:41.758Z,3.65
2019-06-01T07:32:10.482Z,3.58
2019-06-01T07:34:42.614Z,3.70
2019-06-01T07:37:11.563Z,3.70
2019-06-01T07:39:40.659Z,4.20
2019-06-01T07:42:10.874Z,4.40
2019-06-01T07:44:42.425Z,4.87
2019-06-01T07:47:13.987Z,4.50
2019-06-01T07:49:43.197Z,5.35
2019-06-01T07:52:15.562Z,5.30
2019-06-01T07:54:52.216Z,5.83
2019-06-01T07:57:23.498Z,5.22
2019-06-01T07:59:52.261Z,5.67
2019-06-01T08:02:25.304Z,3.85
2019-06-01T08:06:36.610Z,4.35
2019-06-01T08:07:33.372Z,4.75
2019-06-01T08:10:04.219Z,4.58
2019-06-01T08:12:52.552Z,4.87
2019-06-01T08:15:25.653Z,4.53
2019-06-01T08:17:54.426Z,6.05
2019-06-01T08:20:32.260Z,6.17
2019-06-01T08:23:03.516Z,5.47
2019-06-01T08:25:37.792Z,4.87
2019-06-01T08:28:12.407Z,5.45
2019-06-01T08:30:41.186Z,5.15
2019-06-01T08:33:12.946Z,4.78
2019-06-01T08:35:46.058Z,5.25
2019-06-01T08:38:15.669Z,5.22
2019-06-01T08:40:48.058Z,4.70
2019-06-01T08:43:23.514Z,5.35
2019-06-01T08:45:52.235Z,4.85
2019-06-01T08:48:33.935Z,5.53
2019-06-01T08:51:08.487Z,5.28
2019-06-01T08:53:38.864Z,4.80
2019-06-01T08:56:10.754Z,5.83
2019-06-01T09:01:42.006Z,5.70
2019-06-01T09:04:10.785Z,5.62
2019-06-01T09:06:41.066Z,6.40
2019-06-01T09:14:35.552Z,5.80
2019-06-01T09:17:11.736Z,4.85
2019-06-01T09:19:41.655Z,4.08
2019-06-01T09:22:10.645Z,5.75
2019-06-01T09:24:39.306Z,4.70
2019-06-01T09:27:08.167Z,4.47
2019-06-01T09:29:39.445Z,5.40
2019-06-01T09:32:11.151Z,5.25
2019-06-01T09:37:29.098Z,4.30
2019-06-01T09:40:01.078Z,3.65
2019-06-01T09:42:33.274Z,2.47
2019-06-01T09:45:11.790Z,2.52
2019-06-01T09:47:42.292Z,2.50
2019-06-01T09:50:12.671Z,1.77
2019-06-01T09:52:41.343Z,2.40
2019-06-01T09:55:12.526Z,2.12
2019-06-01T09:57:41.312Z,1.52
2019-06-01T10:00:16.631Z,2.05
2019-06-01T10:02:45.422Z,1.30
2019-06-01T10:05:15.027Z,1.10
2019-06-01T10:07:45.682Z,1.60
2019-06-01T10:10:20.974Z,1.10
2019-06-01T10:12:54.362Z,0.85
2019-06-01T10:17:54.956Z,1.00
2019-06-01T10:20:23.632Z,1.12
2019-06-01T10:22:52.490Z,1.20
2019-06-01T10:25:21.175Z,1.40
2019-06-01T10:27:50.525Z,1.42
2019-06-01T10:30:21.140Z,1.22
2019-06-01T10:32:52.584Z,1.62
2019-06-01T10:35:21.414Z,1.95
2019-06-01T10:37:57.103Z,2.22
2019-06-01T10:40:27.451Z,1.80
2019-06-01T10:42:56.127Z,1.98
2019-06-01T10:45:33.534Z,1.67
2019-06-01T10:48:05.520Z,2.67
2019-06-01T10:50:36.669Z,2.00
2019-06-01T10:53:15.898Z,1.47
2019-06-01T10:55:47.740Z,2.05
2019-06-01T10:58:17.573Z,2.05
2019-06-01T11:00:51.143Z,2.05
2019-06-01T11:03:18.808Z,2.40
2019-06-01T11:05:47.501Z,1.60
2019-06-01T11:08:16.154Z,1.50
2019-06-01T11:10:46.241Z,1.35
2019-06-01T11:13:14.887Z,1.92
2019-06-01T11:15:44.219Z,1.60
2019-06-01T11:18:17.719Z,1.80
2019-06-01T11:20:52.315Z,2.10
2019-06-01T11:23:28.660Z,2.40
2019-06-01T11:25:58.946Z,1.20
2019-06-01T11:28:28.584Z,1.98
2019-06-01T11:30:58.778Z,1.70
2019-06-01T11:33:29.610Z,1.98
2019-06-01T11:35:58.719Z,1.55
2019-06-01T11:38:28.992Z,1.67
2019-06-01T11:40:58.209Z,1.62
2019-06-01T11:43:30.296Z,2.42
2019-06-01T11:46:00.515Z,2.42
2019-06-01T11:48:32.729Z,1.80
2019-06-01T11:51:04.076Z,3.15
2019-06-01T11:53:32.736Z,3.37
2019-06-01T11:56:02.931Z,3.30
2019-06-01T11:58:31.728Z,3.35
2019-06-01T12:01:00.408Z,2.67
2019-06-01T12:03:29.114Z,2.70
2019-06-01T12:06:03.210Z,4.12
2019-06-01T12:08:34.341Z,3.83
2019-06-01T12:11:04.710Z,3.55
2019-06-01T12:13:33.455Z,3.17
2019-06-01T12:16:06.027Z,3.62
2019-06-01T12:18:36.464Z,2.52
2019-06-01T12:21:05.234Z,3.17
2019-06-01T12:23:37.231Z,3.47
2019-06-01T12:26:08.035Z,3.42
2019-06-01T12:28:37.642Z,2.95
2019-06-01T12:31:09.288Z,2.72
2019-06-01T12:33:38.023Z,3.70
2019-06-01T12:36:10.998Z,3.27
2019-06-01T12:38:50.806Z,3.33
2019-06-01T12:41:20.570Z,3.67
2019-06-01T12:43:59.946Z,3.40
2019-06-01T12:46:30.064Z,3.33
2019-06-01T12:48:59.366Z,3.05
2019-06-01T12:51:33.393Z,2.67
2019-06-01T12:54:03.382Z,3.08
2019-06-01T12:56:32.113Z,3.30
2019-06-01T12:59:06.600Z,2.17
2019-06-01T13:01:35.470Z,3.02
2019-06-01T13:04:06.223Z,2.67
2019-06-01T13:06:36.796Z,3.12
2019-06-01T13:09:08.528Z,3.58
2019-06-01T13:11:41.393Z,2.55
2019-06-01T13:14:10.524Z,3.00
2019-06-01T13:16:43.806Z,2.70
2019-06-01T13:19:12.042Z,1.77
2019-06-01T13:21:45.268Z,2.30
2019-06-01T13:24:15.818Z,2.00
2019-06-01T13:26:45.627Z,3.67
2019-06-01T13:32:29.449Z,3.98
2019-06-01T13:35:13.707Z,3.67
2019-06-01T13:37:42.740Z,2.85
2019-06-01T13:40:15.356Z,2.22
2019-06-01T13:45:20.625Z,1.42
2019-06-01T13:47:49.837Z,2.55
2019-06-01T13:50:39.789Z,2.50
2019-06-01T13:53:08.576Z,2.17
2019-06-01T13:55:41.659Z,1.98
2019-06-01T13:58:14.103Z,1.77
2019-06-01T14:00:49.003Z,1.82
2019-06-01T14:03:21.642Z,2.05
2019-06-01T14:05:50.979Z,2.40
2019-06-01T14:08:28.817Z,1.30
2019-06-01T14:10:57.234Z,2.20
2019-06-01T14:13:26.006Z,2.50
2019-06-01T14:16:00.666Z,1.85
2019-06-01T14:18:40.123Z,2.17
2019-06-01T14:21:16.464Z,2.80
2019-06-01T14:23:45.787Z,3.33
2019-06-01T14:26:36.270Z,2.50
2019-06-01T14:29:06.486Z,2.77
2019-06-01T14:32:17.628Z,2.00
2019-06-01T14:35:03.467Z,2.15
2019-06-01T14:37:34.985Z,1.47
2019-06-01T14:40:09.260Z,2.37
2019-06-01T14:45:37.818Z,2.22
2019-06-01T14:48:06.683Z,2.12
2019-06-01T14:51:26.597Z,2.27
2019-06-01T14:54:07.504Z,2.30
2019-06-01T14:56:36.840Z,2.47
2019-06-01T14:59:09.466Z,2.70
2019-06-01T15:01:45.690Z,2.98
2019-06-01T15:07:24.883Z,2.50
2019-06-01T15:09:55.055Z,3.17
2019-06-01T15:17:43.625Z,3.83
2019-06-01T15:20:13.883Z,3.08
2019-06-01T15:22:59.760Z,3.90
2019-06-01T15:28:34.679Z,4.10
2019-06-01T15:31:07.960Z,3.30
2019-06-01T15:33:36.956Z,4.03
2019-06-01T15:36:06.734Z,3.85
2019-06-01T15:38:35.420Z,3.35
2019-06-01T15:41:05.710Z,3.45
2019-06-01T15:43:34.517Z,3.40
2019-06-01T15:46:04.996Z,4.08
2019-06-01T15:48:37.201Z,3.52
2019-06-01T15:51:10.689Z,3.20
2019-06-01T15:53:57.031Z,3.15
2019-06-01T15:59:43.118Z,2.52
2019-06-01T16:02:14.429Z,3.20
2019-06-01T16:04:46.864Z,3.22
2019-06-01T16:07:21.963Z,3.30
2019-06-01T16:09:59.296Z,2.92
2019-06-01T16:12:31.185Z,2.98
2019-06-01T16:15:04.640Z,3.52
2019-06-01T16:17:33.687Z,3.37
2019-06-01T16:20:05.163Z,4.20
2019-06-01T16:22:34.069Z,4.15
2019-06-01T16:25:30.514Z,3.70
2019-06-01T16:28:00.961Z,3.70
2019-06-01T16:30:32.176Z,3.45
2019-06-01T16:33:04.906Z,3.30
2019-06-01T16:35:33.716Z,3.55
2019-06-01T16:38:04.065Z,2.62
2019-06-01T16:40:33.374Z,3.22
2019-06-01T16:43:20.680Z,3.05
2019-06-01T16:45:51.354Z,3.17
2019-06-01T16:48:20.031Z,3.05
2019-06-01T16:50:53.409Z,3.98
2019-06-01T16:53:22.370Z,4.33
2019-06-01T16:55:53.325Z,3.02
2019-06-01T16:58:27.196Z,4.03
2019-06-01T17:00:56.376Z,4.67
2019-06-01T17:03:25.175Z,3.77
2019-06-01T17:05:53.971Z,3.22
2019-06-01T17:08:27.134Z,3.90
2019-06-01T17:13:28.702Z,4.83
2019-06-01T17:15:57.365Z,4.25
2019-06-01T17:18:26.638Z,6.65
2019-06-01T17:20:57.256Z,6.40
2019-06-01T17:23:30.566Z,6.10
2019-06-01T17:26:01.845Z,5.45
2019-06-01T17:28:31.653Z,5.80
2019-06-01T17:31:04.521Z,6.05
2019-06-01T17:33:35.027Z,5.15
2019-06-01T17:36:08.955Z,5.35
2019-06-01T17:38:40.878Z,4.72
2019-06-01T17:41:12.639Z,4.92
2019-06-01T17:43:44.124Z,5.12
2019-06-01T17:46:22.346Z,4.62
2019-06-01T17:48:49.756Z,5.10
2019-06-01T17:51:23.915Z,5.40
2019-06-01T17:53:56.247Z,5.00
2019-06-01T17:56:24.967Z,4.67
2019-06-01T17:58:55.220Z,6.42
2019-06-01T18:01:24.636Z,6.17
2019-06-01T18:03:54.554Z,4.87
2019-06-01T18:06:23.461Z,5.55
2019-06-01T18:08:58.380Z,6.40
2019-06-01T18:11:30.012Z,5.95
2019-06-01T18:13:59.971Z,5.72
2019-06-01T18:16:33.260Z,5.90
2019-06-01T18:19:02.223Z,6.30
2019-06-01T18:21:35.010Z,6.62
2019-06-01T18:24:07.857Z,5.85
2019-06-01T18:26:36.051Z,6.05
2019-06-01T18:29:05.128Z,5.78
2019-06-01T18:31:38.575Z,6.10
2019-06-01T18:34:07.876Z,5.70
2019-06-01T18:36:36.687Z,5.90
2019-06-01T18:39:07.599Z,6.83
2019-06-01T18:41:37.310Z,6.47
2019-06-01T18:44:07.643Z,5.60
2019-06-01T18:46:40.364Z,6.80
2019-06-01T18:49:11.966Z,6.00
2019-06-01T18:51:40.718Z,6.60
2019-06-01T18:54:10.995Z,6.37
2019-06-01T18:56:40.625Z,6.90
2019-06-01T18:59:10.273Z,7.15
2019-06-01T19:01:39.043Z,8.38
2019-06-01T19:04:11.446Z,6.55
2019-06-01T19:06:41.825Z,6.73
2019-06-01T19:09:11.302Z,5.85
2019-06-01T19:11:40.063Z,6.08
2019-06-01T19:14:09.822Z,7.83
2019-06-01T19:16:40.060Z,7.95
2019-06-01T19:19:08.716Z,6.00
2019-06-01T19:21:39.950Z,5.50
2019-06-01T19:24:10.551Z,5.80
2019-06-01T19:26:40.555Z,5.72
2019-06-01T19:29:13.380Z,4.47
2019-06-01T19:31:42.358Z,4.37
2019-06-01T19:34:11.068Z,4.83
2019-06-01T19:36:42.794Z,5.58
2019-06-01T19:39:13.332Z,5.45
2019-06-01T19:41:45.614Z,5.60
2019-06-01T19:44:15.678Z,5.83
2019-06-01T19:46:44.613Z,6.85
2019-06-01T19:49:14.985Z,6.60
2019-06-01T19:51:43.806Z,6.40
2019-06-01T19:54:15.006Z,6.70
2019-06-01T19:56:45.288Z,7.72
2019-06-01T19:59:16.048Z,7.22
2019-06-01T20:01:44.881Z,7.15
2019-06-01T20:04:16.756Z,7.12
2019-06-01T20:06:45.435Z,6.12
2019-06-01T20:09:17.155Z,6.78
2019-06-01T20:12:00.975Z,6.10
2019-06-01T20:14:19.051Z,6.40
2019-06-01T20:16:47.643Z,5.03
2019-06-01T20:19:17.721Z,5.85
2019-06-01T20:21:46.584Z,5.50
2019-06-01T20:24:17.819Z,4.80
2019-06-01T20:26:49.377Z,5.05
2019-06-01T20:29:17.662Z,5.35
2019-06-01T20:31:48.123Z,5.87
2019-06-01T20:34:20.070Z,4.90
2019-06-01T20:36:49.383Z,4.70
2019-06-01T20:39:22.305Z,4.60
2019-06-01T20:41:49.939Z,3.92
2019-06-01T20:44:18.840Z,3.87
2019-06-01T20:46:49.259Z,4.60
2019-06-01T20:49:19.235Z,4.78
2019-06-01T20:51:55.185Z,4.85
2019-06-01T20:54:26.589Z,4.90
2019-06-01T20:56:58.109Z,5.05
2019-06-01T20:59:26.767Z,4.80
2019-06-01T21:02:06.950Z,5.42
2019-06-01T21:04:38.756Z,5.30
2019-06-01T21:07:10.056Z,4.85
2019-06-01T21:09:41.769Z,5.30
2019-06-01T21:12:16.120Z,4.97
2019-06-01T21:14:47.748Z,4.47
2019-06-01T21:17:22.708Z,5.65
2019-06-01T21:19:54.509Z,5.80
2019-06-01T21:22:24.900Z,5.28
2019-06-01T21:24:58.777Z,5.30
2019-06-01T21:27:29.414Z,5.03
2019-06-01T21:30:02.302Z,5.92
2019-06-01T21:32:32.914Z,5.95
2019-06-01T21:35:02.988Z,7.95
2019-06-01T21:37:33.479Z,5.45
2019-06-01T21:40:09.672Z,6.00
2019-06-01T21:42:40.753Z,5.33
2019-06-01T21:45:13.103Z,5.20
2019-06-01T21:47:55.249Z,5.80
2019-06-01T21:50:27.289Z,6.12
2019-06-01T21:52:59.118Z,5.37
2019-06-01T21:55:30.633Z,5.12
2019-06-01T21:58:04.939Z,5.58
2019-06-01T22:00:40.935Z,5.22
2019-06-01T22:03:11.297Z,4.58
2019-06-01T22:05:42.447Z,5.30
2019-06-01T22:08:14.358Z,5.00
2019-06-01T22:10:44.345Z,4.58
2019-06-01T22:13:19.343Z,5.85
2019-06-01T22:15:46.235Z,4.72
2019-06-01T22:18:19.466Z,4.50
2019-06-01T22:20:49.449Z,5.03
2019-06-01T22:23:19.822Z,5.40
2019-06-01T22:25:52.174Z,4.92
2019-06-01T22:28:26.875Z,4.08
2019-06-01T22:30:55.554Z,5.05
2019-06-01T22:33:31.033Z,5.17
2019-06-01T22:36:01.396Z,5.37
2019-06-01T22:38:30.753Z,6.10
2019-06-01T22:41:00.680Z,4.22
2019-06-01T22:43:45.687Z,4.15
2019-06-01T22:46:02.498Z,3.83
2019-06-01T22:48:31.155Z,4.30
2019-06-01T22:50:59.824Z,4.47
2019-06-01T22:53:30.292Z,4.65
2019-06-01T22:55:59.521Z,5.97
2019-06-01T22:58:31.651Z,5.37
2019-06-01T23:01:06.527Z,5.15
2019-06-01T23:03:36.662Z,7.53
2019-06-01T23:06:08.658Z,7.47
2019-06-01T23:08:38.992Z,7.37
2019-06-01T23:11:10.559Z,9.35
2019-06-01T23:13:52.645Z,7.62
2019-06-01T23:16:13.082Z,9.25
2019-06-01T23:18:43.505Z,7.20
2019-06-01T23:21:15.208Z,6.92
2019-06-01T23:23:47.064Z,7.85
2019-06-01T23:26:15.804Z,7.17
2019-06-01T23:28:47.813Z,7.30
2019-06-01T23:31:16.474Z,7.12
2019-06-01T23:33:45.258Z,6.25
2019-06-01T23:36:15.666Z,6.22
2019-06-01T23:38:44.404Z,5.72
2019-06-01T23:41:16.258Z,6.05
2019-06-01T23:43:47.665Z,6.62
2019-06-01T23:46:16.597Z,5.78
2019-06-01T23:48:48.113Z,6.00
2019-06-01T23:51:19.217Z,6.35
2019-06-01T23:53:49.983Z,5.95
2019-06-01T23:56:21.331Z,6.22
2019-06-01T23:58:50.100Z,5.28
